sensor_id;sensor_type;location;lat;lon;timestamp;P1;durP1;ratioP1;P2;durP2;ratioP2
24729;SDS011;12832;52.392;13.066;2022-09-09T00:09:28;1.52;;;1.30;;
24729;SDS011;12832;52.392;13.066;2022-09-09T00:12:13;1.60;;;1.50;;
24729;SDS011;12832;52.392;13.066;2022-09-09T00:15:02;1.67;;;1.58;;
24729;SDS011;12832;52.392;13.066;2022-09-09T00:20:42;1.70;;;1.60;;
24729;SDS011;12832;52.392;13.066;2022-09-09T00:23:19;1.35;;;1.10;;
24729;SDS011;12832;52.392;13.066;2022-09-09T00:28:48;1.40;;;1.30;;
24729;SDS011;12832;52.392;13.066;2022-09-09T00:31:26;1.77;;;1.67;;
24729;SDS011;12832;52.392;13.066;2022-09-09T00:33:57;1.52;;;1.42;;
24729;SDS011;12832;52.392;13.066;2022-09-09T00:36:28;1.50;;;1.40;;
24729;SDS011;12832;52.392;13.066;2022-09-09T00:38:59;1.50;;;1.40;;
24729;SDS011;12832;52.392;13.066;2022-09-09T00:41:31;1.52;;;1.42;;
24729;SDS011;12832;52.392;13.066;2022-09-09T00:44:25;1.42;;;1.33;;
24729;SDS011;12832;52.392;13.066;2022-09-09T00:46:59;1.17;;;1.10;;
24729;SDS011;12832;52.392;13.066;2022-09-09T00:49:34;1.42;;;1.33;;
24729;SDS011;12832;52.392;13.066;2022-09-09T00:57:35;1.30;;;1.20;;
24729;SDS011;12832;52.392;13.066;2022-09-09T01:02:34;1.30;;;1.20;;
24729;SDS011;12832;52.392;13.066;2022-09-09T01:05:20;1.35;;;1.25;;
24729;SDS011;12832;52.392;13.066;2022-09-09T01:11:04;1.40;;;1.30;;
24729;SDS011;12832;52.392;13.066;2022-09-09T01:13:33;1.50;;;1.40;;
24729;SDS011;12832;52.392;13.066;2022-09-09T01:16:03;1.38;;;1.27;;
24729;SDS011;12832;52.392;13.066;2022-09-09T01:18:34;1.13;;;1.05;;
24729;SDS011;12832;52.392;13.066;2022-09-09T01:26:38;1.40;;;1.30;;
24729;SDS011;12832;52.392;13.066;2022-09-09T01:29:11;1.23;;;1.13;;
24729;SDS011;12832;52.392;13.066;2022-09-09T01:31:41;1.10;;;1.10;;
24729;SDS011;12832;52.392;13.066;2022-09-09T01:34:17;1.50;;;1.40;;
24729;SDS011;12832;52.392;13.066;2022-09-09T01:36:49;1.20;;;1.10;;
24729;SDS011;12832;52.392;13.066;2022-09-09T01:39:24;1.50;;;1.40;;
24729;SDS011;12832;52.392;13.066;2022-09-09T01:41:51;1.20;;;1.10;;
24729;SDS011;12832;52.392;13.066;2022-09-09T01:44:18;1.00;;;1.00;;
24729;SDS011;12832;52.392;13.066;2022-09-09T01:46:45;1.40;;;1.30;;
24729;SDS011;12832;52.392;13.066;2022-09-09T01:49:11;1.38;;;1.23;;
24729;SDS011;12832;52.392;13.066;2022-09-09T01:51:38;1.30;;;1.20;;
24729;SDS011;12832;52.392;13.066;2022-09-09T01:54:06;1.00;;;0.95;;
24729;SDS011;12832;52.392;13.066;2022-09-09T01:56:40;1.15;;;1.10;;
24729;SDS011;12832;52.392;13.066;2022-09-09T02:04:53;1.23;;;1.13;;
24729;SDS011;12832;52.392;13.066;2022-09-09T02:13:14;1.00;;;1.00;;
24729;SDS011;12832;52.392;13.066;2022-09-09T02:15:45;1.30;;;1.20;;
24729;SDS011;12832;52.392;13.066;2022-09-09T02:18:13;0.95;;;0.95;;
24729;SDS011;12832;52.392;13.066;2022-09-09T02:20:43;1.25;;;1.15;;
24729;SDS011;12832;52.392;13.066;2022-09-09T02:23:11;1.17;;;1.08;;
24729;SDS011;12832;52.392;13.066;2022-09-09T02:25:39;1.20;;;1.10;;
24729;SDS011;12832;52.392;13.066;2022-09-09T02:28:07;1.20;;;1.10;;
24729;SDS011;12832;52.392;13.066;2022-09-09T02:30:36;1.20;;;1.10;;
24729;SDS011;12832;52.392;13.066;2022-09-09T02:33:05;1.23;;;1.13;;
24729;SDS011;12832;52.392;13.066;2022-09-09T02:35:33;1.08;;;1.08;;
24729;SDS011;12832;52.392;13.066;2022-09-09T02:38:04;1.00;;;1.00;;
24729;SDS011;12832;52.392;13.066;2022-09-09T02:40:33;0.90;;;0.90;;
24729;SDS011;12832;52.392;13.066;2022-09-09T02:42:59;1.00;;;0.98;;
24729;SDS011;12832;52.392;13.066;2022-09-09T02:45:27;1.20;;;1.10;;
24729;SDS011;12832;52.392;13.066;2022-09-09T02:50:34;1.30;;;1.20;;
24729;SDS011;12832;52.392;13.066;2022-09-09T02:56:00;1.00;;;1.00;;
24729;SDS011;12832;52.392;13.066;2022-09-09T02:58:32;1.05;;;0.98;;
24729;SDS011;12832;52.392;13.066;2022-09-09T03:00:59;0.90;;;0.90;;
24729;SDS011;12832;52.392;13.066;2022-09-09T03:03:28;1.25;;;1.15;;
24729;SDS011;12832;52.392;13.066;2022-09-09T03:05:55;1.40;;;1.30;;
24729;SDS011;12832;52.392;13.066;2022-09-09T03:08:22;1.23;;;1.13;;
24729;SDS011;12832;52.392;13.066;2022-09-09T03:10:49;0.88;;;0.88;;
24729;SDS011;12832;52.392;13.066;2022-09-09T03:13:15;0.90;;;0.90;;
24729;SDS011;12832;52.392;13.066;2022-09-09T03:15:41;0.95;;;0.90;;
24729;SDS011;12832;52.392;13.066;2022-09-09T03:18:07;1.00;;;1.00;;
24729;SDS011;12832;52.392;13.066;2022-09-09T03:20:33;1.00;;;0.90;;
24729;SDS011;12832;52.392;13.066;2022-09-09T03:23:00;1.20;;;1.10;;
24729;SDS011;12832;52.392;13.066;2022-09-09T03:25:27;0.90;;;0.90;;
24729;SDS011;12832;52.392;13.066;2022-09-09T03:27:54;0.90;;;0.90;;
24729;SDS011;12832;52.392;13.066;2022-09-09T03:30:21;1.00;;;1.00;;
24729;SDS011;12832;52.392;13.066;2022-09-09T03:32:48;0.90;;;0.90;;
24729;SDS011;12832;52.392;13.066;2022-09-09T03:35:14;0.90;;;0.90;;
24729;SDS011;12832;52.392;13.066;2022-09-09T03:37:41;1.02;;;1.02;;
24729;SDS011;12832;52.392;13.066;2022-09-09T03:40:07;0.82;;;0.82;;
24729;SDS011;12832;52.392;13.066;2022-09-09T03:42:35;0.95;;;0.95;;
24729;SDS011;12832;52.392;13.066;2022-09-09T03:45:03;0.82;;;0.82;;
24729;SDS011;12832;52.392;13.066;2022-09-09T03:47:30;0.90;;;0.80;;
24729;SDS011;12832;52.392;13.066;2022-09-09T03:49:56;0.80;;;0.80;;
24729;SDS011;12832;52.392;13.066;2022-09-09T03:52:22;0.90;;;0.90;;
24729;SDS011;12832;52.392;13.066;2022-09-09T03:54:50;1.20;;;1.10;;
24729;SDS011;12832;52.392;13.066;2022-09-09T03:57:17;0.90;;;0.90;;
24729;SDS011;12832;52.392;13.066;2022-09-09T03:59:43;0.88;;;0.80;;
24729;SDS011;12832;52.392;13.066;2022-09-09T04:02:09;0.90;;;0.90;;
24729;SDS011;12832;52.392;13.066;2022-09-09T04:04:35;1.42;;;0.93;;
24729;SDS011;12832;52.392;13.066;2022-09-09T04:07:02;1.27;;;1.10;;
24729;SDS011;12832;52.392;13.066;2022-09-09T04:09:28;0.95;;;0.93;;
24729;SDS011;12832;52.392;13.066;2022-09-09T04:11:54;1.08;;;1.02;;
24729;SDS011;12832;52.392;13.066;2022-09-09T04:14:20;0.75;;;0.75;;
24729;SDS011;12832;52.392;13.066;2022-09-09T04:16:46;0.88;;;0.88;;
24729;SDS011;12832;52.392;13.066;2022-09-09T04:19:13;0.90;;;0.90;;
24729;SDS011;12832;52.392;13.066;2022-09-09T04:21:42;1.20;;;1.10;;
24729;SDS011;12832;52.392;13.066;2022-09-09T04:24:08;0.80;;;0.80;;
24729;SDS011;12832;52.392;13.066;2022-09-09T04:26:35;0.80;;;0.80;;
24729;SDS011;12832;52.392;13.066;2022-09-09T04:29:02;0.80;;;0.80;;
24729;SDS011;12832;52.392;13.066;2022-09-09T04:31:29;1.30;;;1.20;;
24729;SDS011;12832;52.392;13.066;2022-09-09T04:33:56;1.02;;;0.80;;
24729;SDS011;12832;52.392;13.066;2022-09-09T04:36:22;1.05;;;0.95;;
24729;SDS011;12832;52.392;13.066;2022-09-09T04:38:48;0.88;;;0.88;;
24729;SDS011;12832;52.392;13.066;2022-09-09T04:41:15;0.80;;;0.80;;
24729;SDS011;12832;52.392;13.066;2022-09-09T04:43:42;0.80;;;0.80;;
24729;SDS011;12832;52.392;13.066;2022-09-09T04:46:08;1.10;;;0.90;;
24729;SDS011;12832;52.392;13.066;2022-09-09T04:48:34;0.98;;;0.77;;
24729;SDS011;12832;52.392;13.066;2022-09-09T04:51:02;0.70;;;0.70;;
24729;SDS011;12832;52.392;13.066;2022-09-09T04:53:30;0.68;;;0.68;;
24729;SDS011;12832;52.392;13.066;2022-09-09T04:56:03;1.00;;;1.00;;
24729;SDS011;12832;52.392;13.066;2022-09-09T04:58:31;1.00;;;1.00;;
24729;SDS011;12832;52.392;13.066;2022-09-09T05:01:07;1.02;;;1.00;;
24729;SDS011;12832;52.392;13.066;2022-09-09T05:03:39;1.20;;;1.10;;
24729;SDS011;12832;52.392;13.066;2022-09-09T05:06:10;0.93;;;0.93;;
24729;SDS011;12832;52.392;13.066;2022-09-09T05:08:38;1.30;;;1.10;;
24729;SDS011;12832;52.392;13.066;2022-09-09T05:13:41;1.33;;;1.10;;
24729;SDS011;12832;52.392;13.066;2022-09-09T05:16:08;1.10;;;1.00;;
24729;SDS011;12832;52.392;13.066;2022-09-09T05:18:37;1.80;;;1.10;;
24729;SDS011;12832;52.392;13.066;2022-09-09T05:21:04;1.20;;;1.17;;
24729;SDS011;12832;52.392;13.066;2022-09-09T05:23:32;1.10;;;1.00;;
24729;SDS011;12832;52.392;13.066;2022-09-09T05:25:59;1.67;;;1.42;;
24729;SDS011;12832;52.392;13.066;2022-09-09T05:28:26;1.02;;;0.93;;
24729;SDS011;12832;52.392;13.066;2022-09-09T05:30:56;1.58;;;1.13;;
24729;SDS011;12832;52.392;13.066;2022-09-09T05:33:30;1.17;;;1.10;;
24729;SDS011;12832;52.392;13.066;2022-09-09T05:35:58;1.38;;;1.25;;
24729;SDS011;12832;52.392;13.066;2022-09-09T05:38:25;3.00;;;1.52;;
24729;SDS011;12832;52.392;13.066;2022-09-09T05:40:54;1.58;;;1.15;;
24729;SDS011;12832;52.392;13.066;2022-09-09T05:43:22;1.83;;;1.40;;
24729;SDS011;12832;52.392;13.066;2022-09-09T05:45:58;1.33;;;1.10;;
24729;SDS011;12832;52.392;13.066;2022-09-09T05:48:38;2.35;;;1.17;;
24729;SDS011;12832;52.392;13.066;2022-09-09T05:51:07;2.63;;;1.50;;
24729;SDS011;12832;52.392;13.066;2022-09-09T05:53:36;1.65;;;1.40;;
24729;SDS011;12832;52.392;13.066;2022-09-09T05:56:03;2.20;;;1.13;;
24729;SDS011;12832;52.392;13.066;2022-09-09T05:58:36;1.83;;;1.10;;
24729;SDS011;12832;52.392;13.066;2022-09-09T06:01:07;1.52;;;1.42;;
24729;SDS011;12832;52.392;13.066;2022-09-09T06:03:35;1.52;;;1.42;;
24729;SDS011;12832;52.392;13.066;2022-09-09T06:06:04;2.22;;;1.20;;
24729;SDS011;12832;52.392;13.066;2022-09-09T06:08:32;2.35;;;1.23;;
24729;SDS011;12832;52.392;13.066;2022-09-09T06:11:06;2.75;;;1.38;;
24729;SDS011;12832;52.392;13.066;2022-09-09T06:13:34;3.25;;;1.70;;
24729;SDS011;12832;52.392;13.066;2022-09-09T06:16:01;3.45;;;1.48;;
24729;SDS011;12832;52.392;13.066;2022-09-09T06:18:27;2.78;;;1.50;;
24729;SDS011;12832;52.392;13.066;2022-09-09T06:20:54;2.00;;;1.27;;
24729;SDS011;12832;52.392;13.066;2022-09-09T06:23:21;3.47;;;1.80;;
24729;SDS011;12832;52.392;13.066;2022-09-09T06:25:47;1.90;;;1.45;;
24729;SDS011;12832;52.392;13.066;2022-09-09T06:28:15;2.33;;;1.40;;
24729;SDS011;12832;52.392;13.066;2022-09-09T06:30:41;1.85;;;1.10;;
24729;SDS011;12832;52.392;13.066;2022-09-09T06:33:07;2.72;;;1.02;;
24729;SDS011;12832;52.392;13.066;2022-09-09T06:35:34;1.58;;;1.00;;
24729;SDS011;12832;52.392;13.066;2022-09-09T06:38:00;3.60;;;1.60;;
24729;SDS011;12832;52.392;13.066;2022-09-09T06:40:26;3.85;;;1.30;;
24729;SDS011;12832;52.392;13.066;2022-09-09T06:42:52;3.58;;;1.50;;
24729;SDS011;12832;52.392;13.066;2022-09-09T06:45:19;2.70;;;1.30;;
24729;SDS011;12832;52.392;13.066;2022-09-09T06:47:45;2.15;;;1.33;;
24729;SDS011;12832;52.392;13.066;2022-09-09T06:50:11;2.00;;;1.42;;
24729;SDS011;12832;52.392;13.066;2022-09-09T06:52:37;4.40;;;1.17;;
24729;SDS011;12832;52.392;13.066;2022-09-09T06:55:03;2.28;;;1.10;;
24729;SDS011;12832;52.392;13.066;2022-09-09T06:57:29;1.38;;;1.27;;
24729;SDS011;12832;52.392;13.066;2022-09-09T07:00:03;2.38;;;1.30;;
24729;SDS011;12832;52.392;13.066;2022-09-09T07:02:31;1.58;;;1.20;;
24729;SDS011;12832;52.392;13.066;2022-09-09T07:04:59;2.10;;;1.00;;
24729;SDS011;12832;52.392;13.066;2022-09-09T07:07:25;1.23;;;1.13;;
24729;SDS011;12832;52.392;13.066;2022-09-09T07:09:52;2.10;;;1.17;;
24729;SDS011;12832;52.392;13.066;2022-09-09T07:12:18;1.98;;;1.17;;
24729;SDS011;12832;52.392;13.066;2022-09-09T07:14:44;1.23;;;1.10;;
24729;SDS011;12832;52.392;13.066;2022-09-09T07:17:11;1.42;;;1.10;;
24729;SDS011;12832;52.392;13.066;2022-09-09T07:19:37;1.08;;;0.90;;
24729;SDS011;12832;52.392;13.066;2022-09-09T07:22:03;2.05;;;1.13;;
24729;SDS011;12832;52.392;13.066;2022-09-09T07:24:29;2.28;;;0.70;;
24729;SDS011;12832;52.392;13.066;2022-09-09T07:26:56;3.40;;;1.10;;
24729;SDS011;12832;52.392;13.066;2022-09-09T07:29:22;1.63;;;0.90;;
24729;SDS011;12832;52.392;13.066;2022-09-09T07:31:48;1.10;;;1.00;;
24729;SDS011;12832;52.392;13.066;2022-09-09T07:34:14;2.70;;;1.30;;
24729;SDS011;12832;52.392;13.066;2022-09-09T07:36:41;2.15;;;1.00;;
24729;SDS011;12832;52.392;13.066;2022-09-09T07:39:11;1.23;;;0.98;;
24729;SDS011;12832;52.392;13.066;2022-09-09T07:41:40;2.00;;;0.90;;
24729;SDS011;12832;52.392;13.066;2022-09-09T07:44:15;1.65;;;0.90;;
24729;SDS011;12832;52.392;13.066;2022-09-09T07:46:43;2.25;;;0.98;;
24729;SDS011;12832;52.392;13.066;2022-09-09T07:49:11;1.77;;;1.00;;
24729;SDS011;12832;52.392;13.066;2022-09-09T07:51:38;1.33;;;0.98;;
24729;SDS011;12832;52.392;13.066;2022-09-09T07:54:07;2.80;;;1.02;;
24729;SDS011;12832;52.392;13.066;2022-09-09T07:56:36;1.27;;;1.00;;
24729;SDS011;12832;52.392;13.066;2022-09-09T07:59:03;2.05;;;0.98;;
24729;SDS011;12832;52.392;13.066;2022-09-09T08:04:02;1.00;;;0.77;;
24729;SDS011;12832;52.392;13.066;2022-09-09T08:06:32;1.25;;;0.90;;
24729;SDS011;12832;52.392;13.066;2022-09-09T08:09:00;2.35;;;0.98;;
24729;SDS011;12832;52.392;13.066;2022-09-09T08:11:27;1.65;;;0.82;;
24729;SDS011;12832;52.392;13.066;2022-09-09T08:13:54;1.75;;;1.00;;
24729;SDS011;12832;52.392;13.066;2022-09-09T08:16:32;1.30;;;0.90;;
24729;SDS011;12832;52.392;13.066;2022-09-09T08:19:02;2.00;;;0.85;;
24729;SDS011;12832;52.392;13.066;2022-09-09T08:21:30;1.92;;;1.00;;
24729;SDS011;12832;52.392;13.066;2022-09-09T08:23:58;2.50;;;1.10;;
24729;SDS011;12832;52.392;13.066;2022-09-09T08:26:27;3.03;;;1.15;;
24729;SDS011;12832;52.392;13.066;2022-09-09T08:28:57;1.30;;;0.90;;
24729;SDS011;12832;52.392;13.066;2022-09-09T08:33:53;0.98;;;0.75;;
24729;SDS011;12832;52.392;13.066;2022-09-09T08:36:21;2.08;;;1.05;;
24729;SDS011;12832;52.392;13.066;2022-09-09T08:38:49;1.40;;;1.00;;
24729;SDS011;12832;52.392;13.066;2022-09-09T08:41:22;1.95;;;0.90;;
24729;SDS011;12832;52.392;13.066;2022-09-09T08:44:07;3.33;;;1.08;;
24729;SDS011;12832;52.392;13.066;2022-09-09T08:46:45;1.38;;;1.02;;
24729;SDS011;12832;52.392;13.066;2022-09-09T08:55:15;1.08;;;0.88;;
24729;SDS011;12832;52.392;13.066;2022-09-09T08:58:23;1.60;;;1.08;;
24729;SDS011;12832;52.392;13.066;2022-09-09T09:09:01;1.88;;;1.00;;
24729;SDS011;12832;52.392;13.066;2022-09-09T09:11:37;1.98;;;1.10;;
24729;SDS011;12832;52.392;13.066;2022-09-09T09:14:21;1.92;;;1.10;;
24729;SDS011;12832;52.392;13.066;2022-09-09T09:17:06;3.25;;;0.98;;
24729;SDS011;12832;52.392;13.066;2022-09-09T09:19:39;0.85;;;0.80;;
24729;SDS011;12832;52.392;13.066;2022-09-09T09:22:24;3.15;;;1.10;;
24729;SDS011;12832;52.392;13.066;2022-09-09T09:30:34;1.23;;;0.80;;
24729;SDS011;12832;52.392;13.066;2022-09-09T09:36:11;3.97;;;1.08;;
24729;SDS011;12832;52.392;13.066;2022-09-09T09:38:51;3.13;;;1.10;;
24729;SDS011;12832;52.392;13.066;2022-09-09T09:41:40;2.25;;;0.85;;
24729;SDS011;12832;52.392;13.066;2022-09-09T09:47:25;1.60;;;0.90;;
24729;SDS011;12832;52.392;13.066;2022-09-09T09:49:53;2.20;;;1.00;;
24729;SDS011;12832;52.392;13.066;2022-09-09T09:52:30;1.15;;;0.70;;
24729;SDS011;12832;52.392;13.066;2022-09-09T09:54:57;3.00;;;0.93;;
24729;SDS011;12832;52.392;13.066;2022-09-09T09:57:32;5.93;;;0.95;;
24729;SDS011;12832;52.392;13.066;2022-09-09T10:00:03;4.38;;;0.85;;
24729;SDS011;12832;52.392;13.066;2022-09-09T10:02:43;1.92;;;0.75;;
24729;SDS011;12832;52.392;13.066;2022-09-09T10:05:15;1.92;;;0.98;;
24729;SDS011;12832;52.392;13.066;2022-09-09T10:10:41;2.67;;;1.02;;
24729;SDS011;12832;52.392;13.066;2022-09-09T10:19:50;3.30;;;0.70;;
24729;SDS011;12832;52.392;13.066;2022-09-09T10:22:09;1.00;;;0.90;;
24729;SDS011;12832;52.392;13.066;2022-09-09T10:24:58;1.58;;;0.73;;
24729;SDS011;12832;52.392;13.066;2022-09-09T10:30:35;2.08;;;1.00;;
24729;SDS011;12832;52.392;13.066;2022-09-09T10:33:16;1.70;;;0.88;;
24729;SDS011;12832;52.392;13.066;2022-09-09T10:38:46;1.48;;;0.70;;
24729;SDS011;12832;52.392;13.066;2022-09-09T10:41:18;2.78;;;0.77;;
24729;SDS011;12832;52.392;13.066;2022-09-09T10:44:10;1.35;;;0.80;;
24729;SDS011;12832;52.392;13.066;2022-09-09T10:49:43;2.25;;;0.93;;
24729;SDS011;12832;52.392;13.066;2022-09-09T10:52:40;2.15;;;0.70;;
24729;SDS011;12832;52.392;13.066;2022-09-09T10:55:24;2.03;;;0.90;;
24729;SDS011;12832;52.392;13.066;2022-09-09T10:57:55;1.13;;;0.65;;
24729;SDS011;12832;52.392;13.066;2022-09-09T11:00:25;1.98;;;1.00;;
24729;SDS011;12832;52.392;13.066;2022-09-09T11:03:03;4.10;;;0.93;;
24729;SDS011;12832;52.392;13.066;2022-09-09T11:06:32;2.35;;;0.73;;
24729;SDS011;12832;52.392;13.066;2022-09-09T11:08:30;0.75;;;0.55;;
24729;SDS011;12832;52.392;13.066;2022-09-09T11:11:02;1.63;;;0.80;;
24729;SDS011;12832;52.392;13.066;2022-09-09T11:22:07;1.98;;;0.73;;
24729;SDS011;12832;52.392;13.066;2022-09-09T11:24:46;1.27;;;0.60;;
24729;SDS011;12832;52.392;13.066;2022-09-09T11:27:28;2.17;;;0.85;;
24729;SDS011;12832;52.392;13.066;2022-09-09T11:35:57;1.67;;;0.82;;
24729;SDS011;12832;52.392;13.066;2022-09-09T11:38:57;1.15;;;0.70;;
24729;SDS011;12832;52.392;13.066;2022-09-09T11:41:45;0.90;;;0.60;;
24729;SDS011;12832;52.392;13.066;2022-09-09T11:44:12;1.45;;;0.63;;
24729;SDS011;12832;52.392;13.066;2022-09-09T11:46:44;0.85;;;0.50;;
24729;SDS011;12832;52.392;13.066;2022-09-09T11:51:56;1.48;;;0.55;;
24729;SDS011;12832;52.392;13.066;2022-09-09T11:54:29;1.13;;;0.63;;
24729;SDS011;12832;52.392;13.066;2022-09-09T11:56:57;1.60;;;0.90;;
24729;SDS011;12832;52.392;13.066;2022-09-09T11:59:25;1.45;;;0.73;;
24729;SDS011;12832;52.392;13.066;2022-09-09T12:07:38;1.63;;;0.75;;
24729;SDS011;12832;52.392;13.066;2022-09-09T12:10:20;1.75;;;0.90;;
24729;SDS011;12832;52.392;13.066;2022-09-09T12:12:55;1.83;;;0.75;;
24729;SDS011;12832;52.392;13.066;2022-09-09T12:15:32;2.35;;;0.90;;
24729;SDS011;12832;52.392;13.066;2022-09-09T12:17:58;1.42;;;0.70;;
24729;SDS011;12832;52.392;13.066;2022-09-09T12:20:38;1.10;;;0.70;;
24729;SDS011;12832;52.392;13.066;2022-09-09T12:31:46;2.53;;;0.80;;
24729;SDS011;12832;52.392;13.066;2022-09-09T12:37:38;1.30;;;0.60;;
24729;SDS011;12832;52.392;13.066;2022-09-09T12:40:06;1.98;;;0.73;;
24729;SDS011;12832;52.392;13.066;2022-09-09T12:42:48;0.90;;;0.70;;
24729;SDS011;12832;52.392;13.066;2022-09-09T12:45:18;1.45;;;0.77;;
24729;SDS011;12832;52.392;13.066;2022-09-09T12:47:47;1.73;;;0.73;;
24729;SDS011;12832;52.392;13.066;2022-09-09T12:50:21;1.95;;;0.90;;
24729;SDS011;12832;52.392;13.066;2022-09-09T12:52:51;1.77;;;0.80;;
24729;SDS011;12832;52.392;13.066;2022-09-09T12:55:21;0.90;;;0.65;;
24729;SDS011;12832;52.392;13.066;2022-09-09T12:57:50;2.08;;;0.82;;
24729;SDS011;12832;52.392;13.066;2022-09-09T13:00:18;1.30;;;0.80;;
24729;SDS011;12832;52.392;13.066;2022-09-09T13:02:52;1.42;;;0.70;;
24729;SDS011;12832;52.392;13.066;2022-09-09T13:05:26;3.72;;;0.93;;
24729;SDS011;12832;52.392;13.066;2022-09-09T13:08:05;1.33;;;0.75;;
24729;SDS011;12832;52.392;13.066;2022-09-09T13:10:39;1.63;;;0.80;;
24729;SDS011;12832;52.392;13.066;2022-09-09T13:13:28;1.83;;;0.80;;
24729;SDS011;12832;52.392;13.066;2022-09-09T13:16:06;0.95;;;0.60;;
24729;SDS011;12832;52.392;13.066;2022-09-09T13:18:43;1.83;;;0.70;;
24729;SDS011;12832;52.392;13.066;2022-09-09T13:21:09;1.92;;;0.82;;
24729;SDS011;12832;52.392;13.066;2022-09-09T13:23:36;1.63;;;0.70;;
24729;SDS011;12832;52.392;13.066;2022-09-09T13:26:04;2.30;;;0.90;;
24729;SDS011;12832;52.392;13.066;2022-09-09T13:28:46;1.88;;;0.60;;
24729;SDS011;12832;52.392;13.066;2022-09-09T13:31:23;1.80;;;0.85;;
24729;SDS011;12832;52.392;13.066;2022-09-09T13:33:54;1.70;;;0.80;;
24729;SDS011;12832;52.392;13.066;2022-09-09T13:36:27;2.35;;;1.00;;
24729;SDS011;12832;52.392;13.066;2022-09-09T13:38:56;2.22;;;0.50;;
24729;SDS011;12832;52.392;13.066;2022-09-09T13:41:33;1.33;;;0.80;;
24729;SDS011;12832;52.392;13.066;2022-09-09T13:44:02;2.03;;;0.75;;
24729;SDS011;12832;52.392;13.066;2022-09-09T13:46:33;1.85;;;0.82;;
24729;SDS011;12832;52.392;13.066;2022-09-09T13:49:22;2.08;;;0.70;;
24729;SDS011;12832;52.392;13.066;2022-09-09T13:51:48;1.38;;;0.80;;
24729;SDS011;12832;52.392;13.066;2022-09-09T13:54:18;0.95;;;0.65;;
24729;SDS011;12832;52.392;13.066;2022-09-09T13:56:45;3.75;;;0.73;;
24729;SDS011;12832;52.392;13.066;2022-09-09T13:59:13;1.80;;;0.80;;
24729;SDS011;12832;52.392;13.066;2022-09-09T14:01:41;1.40;;;0.60;;
24729;SDS011;12832;52.392;13.066;2022-09-09T14:04:08;0.90;;;0.63;;
24729;SDS011;12832;52.392;13.066;2022-09-09T14:06:34;1.52;;;0.70;;
24729;SDS011;12832;52.392;13.066;2022-09-09T14:09:09;1.15;;;0.60;;
24729;SDS011;12832;52.392;13.066;2022-09-09T14:11:37;1.17;;;0.60;;
24729;SDS011;12832;52.392;13.066;2022-09-09T14:14:03;2.15;;;0.60;;
24729;SDS011;12832;52.392;13.066;2022-09-09T14:16:30;1.65;;;0.60;;
24729;SDS011;12832;52.392;13.066;2022-09-09T14:18:56;0.80;;;0.60;;
24729;SDS011;12832;52.392;13.066;2022-09-09T14:21:23;1.27;;;0.47;;
24729;SDS011;12832;52.392;13.066;2022-09-09T14:23:49;1.20;;;0.40;;
24729;SDS011;12832;52.392;13.066;2022-09-09T14:26:15;7.18;;;0.82;;
24729;SDS011;12832;52.392;13.066;2022-09-09T14:28:41;1.40;;;0.90;;
24729;SDS011;12832;52.392;13.066;2022-09-09T14:31:20;1.58;;;0.75;;
24729;SDS011;12832;52.392;13.066;2022-09-09T14:33:46;0.80;;;0.60;;
24729;SDS011;12832;52.392;13.066;2022-09-09T14:36:13;1.10;;;0.60;;
24729;SDS011;12832;52.392;13.066;2022-09-09T14:38:40;0.68;;;0.40;;
24729;SDS011;12832;52.392;13.066;2022-09-09T14:41:11;1.00;;;0.70;;
24729;SDS011;12832;52.392;13.066;2022-09-09T14:43:39;1.77;;;0.60;;
24729;SDS011;12832;52.392;13.066;2022-09-09T14:46:08;0.82;;;0.50;;
24729;SDS011;12832;52.392;13.066;2022-09-09T14:48:37;0.90;;;0.40;;
24729;SDS011;12832;52.392;13.066;2022-09-09T14:51:10;0.80;;;0.60;;
24729;SDS011;12832;52.392;13.066;2022-09-09T14:53:47;1.33;;;0.55;;
24729;SDS011;12832;52.392;13.066;2022-09-09T14:56:17;0.40;;;0.40;;
24729;SDS011;12832;52.392;13.066;2022-09-09T14:58:45;1.42;;;0.70;;
24729;SDS011;12832;52.392;13.066;2022-09-09T15:01:13;2.05;;;0.85;;
24729;SDS011;12832;52.392;13.066;2022-09-09T15:03:41;0.73;;;0.40;;
24729;SDS011;12832;52.392;13.066;2022-09-09T15:06:09;0.80;;;0.40;;
24729;SDS011;12832;52.392;13.066;2022-09-09T15:08:38;0.85;;;0.55;;
24729;SDS011;12832;52.392;13.066;2022-09-09T15:11:08;0.90;;;0.50;;
24729;SDS011;12832;52.392;13.066;2022-09-09T15:13:36;0.80;;;0.70;;
24729;SDS011;12832;52.392;13.066;2022-09-09T15:16:04;1.75;;;0.80;;
24729;SDS011;12832;52.392;13.066;2022-09-09T15:18:32;2.63;;;0.75;;
24729;SDS011;12832;52.392;13.066;2022-09-09T15:20:59;1.00;;;0.43;;
24729;SDS011;12832;52.392;13.066;2022-09-09T15:23:26;1.55;;;0.82;;
24729;SDS011;12832;52.392;13.066;2022-09-09T15:25:53;1.38;;;0.43;;
24729;SDS011;12832;52.392;13.066;2022-09-09T15:28:20;0.98;;;0.50;;
24729;SDS011;12832;52.392;13.066;2022-09-09T15:30:50;1.17;;;0.50;;
24729;SDS011;12832;52.392;13.066;2022-09-09T15:33:20;1.85;;;0.60;;
24729;SDS011;12832;52.392;13.066;2022-09-09T15:35:47;1.13;;;0.50;;
24729;SDS011;12832;52.392;13.066;2022-09-09T15:38:15;2.90;;;0.60;;
24729;SDS011;12832;52.392;13.066;2022-09-09T15:40:42;1.05;;;0.60;;
24729;SDS011;12832;52.392;13.066;2022-09-09T15:43:09;2.25;;;0.60;;
24729;SDS011;12832;52.392;13.066;2022-09-09T15:45:36;1.83;;;0.90;;
24729;SDS011;12832;52.392;13.066;2022-09-09T15:48:03;1.38;;;0.80;;
24729;SDS011;12832;52.392;13.066;2022-09-09T15:50:29;1.40;;;0.90;;
24729;SDS011;12832;52.392;13.066;2022-09-09T15:52:58;1.85;;;0.70;;
24729;SDS011;12832;52.392;13.066;2022-09-09T15:55:25;2.58;;;0.85;;
24729;SDS011;12832;52.392;13.066;2022-09-09T15:57:51;1.63;;;0.70;;
24729;SDS011;12832;52.392;13.066;2022-09-09T16:00:20;1.13;;;0.80;;
24729;SDS011;12832;52.392;13.066;2022-09-09T16:02:48;0.82;;;0.60;;
24729;SDS011;12832;52.392;13.066;2022-09-09T16:05:14;1.73;;;0.73;;
24729;SDS011;12832;52.392;13.066;2022-09-09T16:07:41;1.90;;;0.82;;
24729;SDS011;12832;52.392;13.066;2022-09-09T16:10:08;1.05;;;0.70;;
24729;SDS011;12832;52.392;13.066;2022-09-09T16:12:34;1.25;;;0.80;;
24729;SDS011;12832;52.392;13.066;2022-09-09T16:15:00;1.27;;;0.80;;
24729;SDS011;12832;52.392;13.066;2022-09-09T16:17:27;1.95;;;0.88;;
24729;SDS011;12832;52.392;13.066;2022-09-09T16:19:53;1.60;;;0.75;;
24729;SDS011;12832;52.392;13.066;2022-09-09T16:22:20;2.28;;;0.85;;
24729;SDS011;12832;52.392;13.066;2022-09-09T16:24:46;1.00;;;0.60;;
24729;SDS011;12832;52.392;13.066;2022-09-09T16:27:12;2.60;;;0.68;;
24729;SDS011;12832;52.392;13.066;2022-09-09T16:29:39;1.38;;;0.75;;
24729;SDS011;12832;52.392;13.066;2022-09-09T16:32:05;2.60;;;0.80;;
24729;SDS011;12832;52.392;13.066;2022-09-09T16:34:31;1.88;;;0.75;;
24729;SDS011;12832;52.392;13.066;2022-09-09T16:36:58;1.20;;;0.70;;
24729;SDS011;12832;52.392;13.066;2022-09-09T16:39:24;1.52;;;1.10;;
24729;SDS011;12832;52.392;13.066;2022-09-09T16:41:51;1.40;;;0.80;;
24729;SDS011;12832;52.392;13.066;2022-09-09T16:44:17;0.80;;;0.55;;
24729;SDS011;12832;52.392;13.066;2022-09-09T16:46:45;1.80;;;0.90;;
24729;SDS011;12832;52.392;13.066;2022-09-09T16:49:14;1.27;;;0.63;;
24729;SDS011;12832;52.392;13.066;2022-09-09T16:51:45;1.20;;;0.80;;
24729;SDS011;12832;52.392;13.066;2022-09-09T16:54:13;1.80;;;0.80;;
24729;SDS011;12832;52.392;13.066;2022-09-09T16:56:42;1.20;;;0.65;;
24729;SDS011;12832;52.392;13.066;2022-09-09T16:59:11;1.05;;;0.70;;
24729;SDS011;12832;52.392;13.066;2022-09-09T17:01:39;1.77;;;0.90;;
24729;SDS011;12832;52.392;13.066;2022-09-09T17:04:09;1.00;;;0.60;;
24729;SDS011;12832;52.392;13.066;2022-09-09T17:06:39;2.45;;;1.02;;